createdAt,value
2019-03-15T00:00:29.758Z,71.16
2019-03-15T00:02:59.126Z,71.09
2019-03-15T00:05:27.855Z,72.58
2019-03-15T00:07:57.187Z,72.54
2019-03-15T00:10:26.511Z,73.08
2019-03-15T00:12:55.949Z,73.04
2019-03-15T00:15:25.285Z,73.20
2019-03-15T00:17:54.614Z,73.67
2019-03-15T00:20:36.212Z,73.69
2019-03-15T00:23:04.838Z,73.72
2019-03-15T00:25:34.154Z,73.65
2019-03-15T00:28:03.519Z,73.21
2019-03-15T00:30:32.962Z,73.50
2019-03-15T00:33:02.385Z,73.50
2019-03-15T00:35:31.677Z,74.47
2019-03-15T00:38:01.022Z,74.59
2019-03-15T00:40:30.346Z,74.85
2019-03-15T00:42:59.672Z,75.76
2019-03-15T00:45:29.000Z,75.18
2019-03-15T00:47:58.422Z,76.10
2019-03-15T00:50:27.768Z,77.21
2019-03-15T00:52:57.103Z,75.75
2019-03-15T00:55:26.421Z,76.37
2019-03-15T00:57:55.763Z,77.35
2019-03-15T01:00:25.108Z,77.23
2019-03-15T01:02:54.421Z,76.71
2019-03-15T01:05:23.765Z,76.49
2019-03-15T01:07:53.157Z,76.95
2019-03-15T01:10:22.462Z,76.49
2019-03-15T01:12:51.811Z,77.46
2019-03-15T01:15:21.131Z,77.38
2019-03-15T01:17:50.482Z,77.42
2019-03-15T01:20:19.811Z,78.04
2019-03-15T01:22:49.129Z,77.85
2019-03-15T01:25:18.515Z,78.41
2019-03-15T01:27:47.863Z,78.98
2019-03-15T01:30:17.192Z,78.49
2019-03-15T01:32:46.516Z,79.29
2019-03-15T01:35:15.202Z,79.16
2019-03-15T01:37:44.551Z,79.28
2019-03-15T01:40:13.870Z,79.92
2019-03-15T01:42:43.184Z,80.90
2019-03-15T01:45:12.968Z,81.61
2019-03-15T01:47:42.274Z,80.26
2019-03-15T01:50:11.605Z,79.23
2019-03-15T01:52:40.979Z,80.09
2019-03-15T01:55:10.423Z,81.17
2019-03-15T01:57:39.739Z,82.09
2019-03-15T02:00:09.627Z,82.29
2019-03-15T02:02:38.989Z,82.93
2019-03-15T02:05:08.421Z,82.69
2019-03-15T02:07:37.764Z,82.65
2019-03-15T02:10:07.238Z,83.56
2019-03-15T02:12:36.610Z,83.64
2019-03-15T02:15:18.725Z,84.25
2019-03-15T02:17:48.084Z,84.67
2019-03-15T02:20:17.454Z,86.22
2019-03-15T02:22:46.779Z,88.90
2019-03-15T02:25:16.103Z,89.07
2019-03-15T02:27:45.438Z,89.30
2019-03-15T02:30:14.758Z,90.36
2019-03-15T02:32:44.113Z,90.26
2019-03-15T02:35:13.483Z,90.48
2019-03-15T02:37:42.834Z,91.43
2019-03-15T02:40:12.899Z,91.45
2019-03-15T02:43:01.439Z,91.29
2019-03-15T02:45:30.809Z,93.42
2019-03-15T02:48:00.135Z,94.19
2019-03-15T02:50:29.619Z,93.25
2019-03-15T02:52:59.012Z,93.18
2019-03-15T02:55:28.333Z,92.71
2019-03-15T02:57:57.666Z,94.28
2019-03-15T03:00:26.233Z,95.13
2019-03-15T03:02:55.555Z,94.20
2019-03-15T03:05:24.884Z,95.63
2019-03-15T03:07:54.207Z,96.62
2019-03-15T03:10:23.677Z,96.81
2019-03-15T03:12:53.005Z,97.08
2019-03-15T03:15:22.349Z,96.60
2019-03-15T03:17:51.682Z,96.19
2019-03-15T03:20:21.343Z,95.11
2019-03-15T03:23:10.269Z,95.64
2019-03-15T03:25:39.620Z,94.60
2019-03-15T03:28:09.057Z,94.64
2019-03-15T03:30:38.472Z,95.38
2019-03-15T03:33:07.802Z,94.94
2019-03-15T03:35:37.136Z,94.93
2019-03-15T03:38:06.471Z,94.69
2019-03-15T03:40:35.807Z,94.61
2019-03-15T03:43:05.137Z,93.52
2019-03-15T03:45:34.555Z,94.70
2019-03-15T03:48:03.893Z,95.89
2019-03-15T03:50:33.343Z,95.57
2019-03-15T03:53:02.664Z,95.86
2019-03-15T03:55:32.065Z,94.31
2019-03-15T03:58:02.385Z,94.99
2019-03-15T04:06:36.198Z,96.91
2019-03-15T04:09:07.376Z,96.92
2019-03-15T04:11:35.912Z,95.61
2019-03-15T04:14:05.256Z,96.33
2019-03-15T04:16:34.598Z,97.35
2019-03-15T04:19:04.032Z,96.46
2019-03-15T04:21:33.385Z,96.89
2019-03-15T04:24:02.869Z,96.92
2019-03-15T04:26:32.203Z,97.33
2019-03-15T04:29:01.543Z,96.37
2019-03-15T04:31:30.880Z,95.50
2019-03-15T04:34:00.213Z,94.75
2019-03-15T04:36:29.530Z,94.58
2019-03-15T04:38:58.072Z,95.55
2019-03-15T04:41:27.400Z,94.40
2019-03-15T04:43:56.720Z,94.20
2019-03-15T04:46:26.161Z,94.14
2019-03-15T04:48:55.531Z,93.02
2019-03-15T04:51:24.857Z,92.83
2019-03-15T04:53:54.190Z,93.06
2019-03-15T04:56:23.515Z,93.19
2019-03-15T04:58:52.853Z,94.27
2019-03-15T05:01:22.189Z,94.14
2019-03-15T05:03:51.516Z,94.67
2019-03-15T05:06:20.887Z,94.44
2019-03-15T05:08:50.207Z,94.07
2019-03-15T05:11:19.533Z,94.43
2019-03-15T05:13:48.850Z,94.40
2019-03-15T05:16:18.224Z,94.72
2019-03-15T05:18:47.552Z,93.82
2019-03-15T05:21:16.911Z,93.54
2019-03-15T05:23:46.259Z,93.19
2019-03-15T05:26:15.591Z,93.80
2019-03-15T05:28:44.924Z,94.27
2019-03-15T05:31:14.249Z,94.09
2019-03-15T05:33:42.812Z,94.17
2019-03-15T05:36:12.232Z,94.50
2019-03-15T05:38:41.588Z,95.46
2019-03-15T05:41:10.902Z,96.11
2019-03-15T05:43:40.234Z,97.56
2019-03-15T05:46:08.759Z,97.34
2019-03-15T05:48:38.120Z,96.72
2019-03-15T05:51:07.455Z,97.27
2019-03-15T05:53:36.802Z,97.42
2019-03-15T05:56:06.168Z,97.79
2019-03-15T05:58:34.703Z,98.80
2019-03-15T06:01:04.267Z,98.24
2019-03-15T06:03:47.518Z,98.02
2019-03-15T06:06:22.868Z,98.39
2019-03-15T06:08:52.245Z,97.74
2019-03-15T06:11:21.598Z,98.40
2019-03-15T06:13:50.906Z,98.97
2019-03-15T06:16:20.241Z,99.30
2019-03-15T06:18:49.576Z,98.81
2019-03-15T06:21:18.894Z,98.21
2019-03-15T06:23:48.229Z,98.78
2019-03-15T06:26:17.583Z,96.50
2019-03-15T06:28:46.921Z,96.22
2019-03-15T06:31:16.288Z,96.05
2019-03-15T06:33:45.654Z,95.29
2019-03-15T06:36:15.016Z,94.73
2019-03-15T06:38:44.368Z,94.72
2019-03-15T06:41:14.565Z,95.53
2019-03-15T06:44:03.072Z,94.65
2019-03-15T06:46:32.417Z,93.71
2019-03-15T06:49:01.742Z,93.62
2019-03-15T06:51:31.094Z,93.43
2019-03-15T06:54:10.958Z,93.76
2019-03-15T06:56:49.729Z,91.58
2019-03-15T06:59:19.071Z,91.88
2019-03-15T07:01:48.420Z,92.93
2019-03-15T07:04:17.735Z,91.48
2019-03-15T07:06:47.149Z,93.34
2019-03-15T07:09:16.472Z,91.67
2019-03-15T07:11:45.808Z,89.17
2019-03-15T07:14:15.975Z,88.67
2019-03-15T07:16:44.707Z,88.88
2019-03-15T07:19:25.689Z,89.96
2019-03-15T07:22:03.304Z,89.33
2019-03-15T07:24:44.288Z,89.95
2019-03-15T07:27:13.593Z,88.45
2019-03-15T07:30:02.113Z,86.02
2019-03-15T07:32:31.459Z,86.82
2019-03-15T07:35:00.850Z,87.32
2019-03-15T07:37:30.217Z,85.93
2019-03-15T07:39:59.610Z,86.34
2019-03-15T07:42:29.016Z,87.12
2019-03-15T07:44:58.386Z,86.48
2019-03-15T07:47:27.741Z,84.36
2019-03-15T07:52:58.385Z,84.90
2019-03-15T07:55:27.744Z,84.93
2019-03-15T08:01:00.108Z,82.74
2019-03-15T08:03:29.446Z,82.82
2019-03-15T08:05:58.783Z,82.63
2019-03-15T08:08:28.215Z,80.39
2019-03-15T08:10:57.605Z,76.32
2019-03-15T08:13:27.528Z,75.25
2019-03-15T08:15:56.884Z,76.67
2019-03-15T08:18:26.206Z,78.40
2019-03-15T08:20:55.562Z,76.24
2019-03-15T08:23:24.172Z,77.06
2019-03-15T08:25:53.521Z,75.12
2019-03-15T08:28:22.955Z,74.36
2019-03-15T08:30:52.270Z,72.38
2019-03-15T08:33:20.913Z,71.90
2019-03-15T08:35:50.242Z,73.66
2019-03-15T08:38:19.581Z,73.05
2019-03-15T08:40:48.952Z,74.18
2019-03-15T08:43:18.287Z,74.19
2019-03-15T08:45:47.625Z,73.29
2019-03-15T08:48:17.031Z,71.17
2019-03-15T08:50:46.325Z,70.54
2019-03-15T08:53:15.669Z,69.20
2019-03-15T08:55:45.026Z,68.03
2019-03-15T08:58:21.367Z,71.31
2019-03-15T09:01:03.704Z,68.06
2019-03-15T09:03:34.490Z,66.79
2019-03-15T09:06:22.295Z,69.77
2019-03-15T09:08:51.637Z,67.89
2019-03-15T09:11:20.976Z,67.72
2019-03-15T09:13:50.324Z,66.53
2019-03-15T09:16:19.685Z,68.77
2019-03-15T09:18:49.046Z,64.64
2019-03-15T09:21:18.392Z,65.22
2019-03-15T09:23:47.736Z,65.92
2019-03-15T09:26:17.192Z,64.51
2019-03-15T09:28:46.522Z,64.23
2019-03-15T09:31:15.122Z,65.65
2019-03-15T09:33:44.569Z,65.08
2019-03-15T09:36:13.898Z,64.68
2019-03-15T09:38:43.231Z,64.27
2019-03-15T09:41:12.580Z,63.72
2019-03-15T09:43:53.633Z,63.34
2019-03-15T09:46:22.184Z,62.65
2019-03-15T09:48:51.509Z,63.18
2019-03-15T09:51:20.844Z,63.20
2019-03-15T09:53:50.186Z,64.19
2019-03-15T09:56:19.532Z,65.08
2019-03-15T09:58:48.859Z,63.67
2019-03-15T10:01:34.189Z,62.91
2019-03-15T10:04:07.545Z,65.29
2019-03-15T10:06:37.009Z,61.26
2019-03-15T10:09:06.739Z,60.78
2019-03-15T10:11:36.091Z,57.26
2019-03-15T10:14:05.490Z,56.66
2019-03-15T10:16:34.862Z,57.40
2019-03-15T10:19:03.454Z,57.06
2019-03-15T10:21:32.797Z,59.23
2019-03-15T10:24:01.528Z,57.33
2019-03-15T10:26:30.872Z,57.15
2019-03-15T10:29:00.229Z,54.96
2019-03-15T10:31:29.577Z,53.24
2019-03-15T10:33:58.943Z,52.69
2019-03-15T10:36:28.302Z,52.73
2019-03-15T10:38:57.746Z,53.19
2019-03-15T10:47:12.281Z,57.50
2019-03-15T10:52:43.201Z,59.27
2019-03-15T10:58:14.339Z,50.65
2019-03-15T11:03:45.189Z,57.24
2019-03-15T11:09:16.425Z,51.89
2019-03-15T11:11:45.805Z,51.35
2019-03-15T11:17:16.802Z,48.24
2019-03-15T11:22:47.812Z,49.89
2019-03-15T11:25:17.160Z,51.27
2019-03-15T11:30:28.732Z,46.98
2019-03-15T11:32:58.213Z,47.70
2019-03-15T11:35:27.577Z,47.28
2019-03-15T11:37:56.938Z,47.48
2019-03-15T11:40:26.308Z,49.06
2019-03-15T11:42:55.672Z,47.28
2019-03-15T11:45:25.045Z,50.94
2019-03-15T11:48:03.288Z,50.83
2019-03-15T11:50:43.628Z,51.74
2019-03-15T11:53:12.992Z,51.76
2019-03-15T11:58:25.881Z,53.14
2019-03-15T12:01:06.573Z,53.63
2019-03-15T12:03:35.238Z,50.74
2019-03-15T12:09:07.109Z,48.97
2019-03-15T12:14:41.172Z,50.24
2019-03-15T12:20:11.616Z,49.21
2019-03-15T12:22:40.942Z,46.79
2019-03-15T12:28:12.191Z,50.32
2019-03-15T12:30:43.009Z,48.42
2019-03-15T12:33:30.807Z,49.85
2019-03-15T12:36:03.224Z,50.07
2019-03-15T12:38:49.472Z,49.68
2019-03-15T12:44:21.661Z,47.36
2019-03-15T12:46:50.989Z,48.25
2019-03-15T12:49:20.343Z,46.76
2019-03-15T12:52:02.150Z,48.43
2019-03-15T12:57:33.690Z,54.35
2019-03-15T13:00:03.821Z,49.89
2019-03-15T13:05:36.154Z,50.01
2019-03-15T13:08:05.489Z,50.20
2019-03-15T13:10:34.924Z,52.92
2019-03-15T13:13:04.628Z,46.78
2019-03-15T13:15:33.998Z,48.95
2019-03-15T13:18:03.338Z,51.90
2019-03-15T13:20:32.689Z,50.29
2019-03-15T13:23:02.192Z,51.30
2019-03-15T13:25:31.653Z,46.96
2019-03-15T13:28:01.011Z,47.79
2019-03-15T13:30:30.352Z,50.30
2019-03-15T13:32:59.693Z,52.07
2019-03-15T13:35:29.030Z,52.54
2019-03-15T13:37:58.383Z,47.86
2019-03-15T13:40:27.869Z,48.97
2019-03-15T13:49:02.792Z,45.00
2019-03-15T13:51:32.117Z,44.61
2019-03-15T13:54:01.460Z,45.80
2019-03-15T13:56:30.809Z,48.75
2019-03-15T13:59:00.207Z,45.14
2019-03-15T14:01:29.582Z,45.59
2019-03-15T14:03:58.932Z,44.38
2019-03-15T14:06:28.292Z,44.83
2019-03-15T14:08:57.661Z,46.42
2019-03-15T14:11:27.031Z,49.72
2019-03-15T14:13:56.408Z,47.80
2019-03-15T14:16:25.753Z,46.49
2019-03-15T14:21:57.361Z,47.04
2019-03-15T14:24:38.838Z,52.71
2019-03-15T14:27:07.357Z,51.43
2019-03-15T14:29:36.726Z,49.30
2019-03-15T14:32:06.987Z,47.36
2019-03-15T14:34:55.287Z,49.88
2019-03-15T14:37:24.630Z,47.66
2019-03-15T14:39:54.273Z,52.93
2019-03-15T14:42:23.623Z,52.96
2019-03-15T14:44:53.024Z,50.33
2019-03-15T14:47:22.455Z,47.99
2019-03-15T14:49:51.942Z,48.86
2019-03-15T14:52:21.286Z,51.74
2019-03-15T14:54:50.614Z,48.82
2019-03-15T14:57:19.936Z,47.20
2019-03-15T14:59:49.277Z,52.67
2019-03-15T15:02:18.647Z,50.45
2019-03-15T15:04:47.974Z,52.77
2019-03-15T15:07:17.315Z,49.37
2019-03-15T15:09:47.623Z,46.94
2019-03-15T15:12:35.982Z,50.18
2019-03-15T15:15:19.124Z,51.54
2019-03-15T15:20:51.335Z,48.20
2019-03-15T15:23:20.716Z,48.38
2019-03-15T15:25:50.055Z,48.46
2019-03-15T15:28:19.383Z,48.24
2019-03-15T15:33:51.576Z,54.81
2019-03-15T15:36:20.931Z,48.60
2019-03-15T15:38:50.312Z,50.72
2019-03-15T15:41:19.627Z,55.09
2019-03-15T15:43:49.003Z,50.31
2019-03-15T15:49:01.939Z,51.79
2019-03-15T15:51:31.400Z,57.31
2019-03-15T15:54:00.743Z,49.74
2019-03-15T15:56:30.090Z,51.42
2019-03-15T15:58:59.404Z,54.51
2019-03-15T16:01:28.739Z,53.98
2019-03-15T16:03:58.057Z,49.85
2019-03-15T16:06:27.415Z,49.41
2019-03-15T16:08:56.751Z,55.00
2019-03-15T16:14:28.699Z,51.11
2019-03-15T16:20:00.386Z,53.10
2019-03-15T16:22:49.404Z,53.30
2019-03-15T16:25:18.728Z,51.87
2019-03-15T16:27:48.059Z,53.93
2019-03-15T16:30:17.400Z,58.41
2019-03-15T16:32:46.799Z,56.16
2019-03-15T16:38:18.080Z,55.29
2019-03-15T16:40:47.411Z,55.28
2019-03-15T16:43:16.773Z,54.29
2019-03-15T16:45:46.108Z,52.50
2019-03-15T16:54:20.501Z,54.36
2019-03-15T16:56:49.852Z,54.80
2019-03-15T16:59:19.844Z,57.14
2019-03-15T17:01:48.491Z,54.65
2019-03-15T17:07:20.373Z,55.16
2019-03-15T17:09:49.719Z,56.19
2019-03-15T17:12:19.134Z,55.61
2019-03-15T17:14:48.492Z,58.51
2019-03-15T17:20:20.474Z,54.25
2019-03-15T17:22:49.925Z,55.35
2019-03-15T17:25:18.562Z,59.54
2019-03-15T17:27:48.268Z,57.03
2019-03-15T17:30:17.625Z,57.87
2019-03-15T17:32:47.081Z,56.27
2019-03-15T17:35:16.570Z,55.93
2019-03-15T17:37:45.908Z,58.95
2019-03-15T17:40:15.295Z,58.32
2019-03-15T17:42:44.703Z,57.23
2019-03-15T17:45:14.056Z,57.10
2019-03-15T17:47:43.501Z,58.53
2019-03-15T17:50:14.023Z,59.76
2019-03-15T17:55:45.549Z,58.89
2019-03-15T17:58:14.893Z,58.47
2019-03-15T18:00:45.135Z,60.13
2019-03-15T18:03:26.754Z,60.21
2019-03-15T18:05:55.318Z,59.42
2019-03-15T18:08:24.666Z,61.21
2019-03-15T18:16:39.722Z,60.73
2019-03-15T18:19:09.232Z,58.44
2019-03-15T18:21:39.043Z,58.51
2019-03-15T18:24:08.447Z,58.94
2019-03-15T18:26:37.871Z,59.48
2019-03-15T18:29:07.301Z,59.99
2019-03-15T18:31:36.675Z,60.55
2019-03-15T18:47:14.265Z,60.14
2019-03-15T18:49:43.618Z,59.77
2019-03-15T18:52:12.962Z,59.52
2019-03-15T18:54:42.296Z,60.83
2019-03-15T18:57:11.632Z,59.84
2019-03-15T18:59:41.149Z,60.23
2019-03-15T19:02:10.526Z,60.57
2019-03-15T19:04:39.898Z,60.67
2019-03-15T19:07:09.258Z,61.24
2019-03-15T19:09:38.642Z,62.09
2019-03-15T19:12:08.014Z,63.40
2019-03-15T19:14:37.501Z,61.20
2019-03-15T19:17:06.943Z,61.00
2019-03-15T19:19:36.339Z,61.13
2019-03-15T19:22:05.787Z,61.36
2019-03-15T19:24:35.186Z,62.72
2019-03-15T19:27:04.122Z,62.04
2019-03-15T19:29:33.508Z,63.05
2019-03-15T19:32:03.111Z,63.64
2019-03-15T19:34:32.583Z,62.68
2019-03-15T19:37:02.129Z,63.13
2019-03-15T19:39:31.643Z,64.77
2019-03-15T19:42:01.223Z,63.01
2019-03-15T19:44:30.662Z,63.53
2019-03-15T19:47:00.077Z,63.92
2019-03-15T19:49:29.475Z,64.28
2019-03-15T19:51:58.852Z,63.05
2019-03-15T19:54:31.684Z,63.89
2019-03-15T19:57:17.713Z,63.57
2019-03-15T19:59:47.112Z,66.66
2019-03-15T20:02:16.687Z,64.96
2019-03-15T20:04:46.028Z,66.37
2019-03-15T20:07:14.723Z,63.48
2019-03-15T20:09:44.135Z,63.80
2019-03-15T20:12:13.569Z,63.69
2019-03-15T20:14:43.000Z,63.98
2019-03-15T20:17:12.345Z,67.42
2019-03-15T20:19:41.673Z,65.04
2019-03-15T20:22:11.003Z,64.67
2019-03-15T20:24:40.347Z,63.71
2019-03-15T20:27:09.672Z,63.85
2019-03-15T20:29:39.017Z,63.10
2019-03-15T20:32:08.340Z,63.91
2019-03-15T20:34:37.678Z,65.71
2019-03-15T20:37:07.026Z,63.06
2019-03-15T20:39:36.366Z,63.85
2019-03-15T20:42:05.706Z,64.97
2019-03-15T20:44:35.043Z,63.27
2019-03-15T20:47:04.417Z,68.53
2019-03-15T20:49:36.286Z,66.32
2019-03-15T20:52:22.291Z,63.70
2019-03-15T20:54:51.638Z,68.39
2019-03-15T20:57:21.027Z,64.96
2019-03-15T20:59:50.350Z,64.68
2019-03-15T21:02:19.756Z,63.90
2019-03-15T21:04:49.076Z,63.86
2019-03-15T21:07:18.405Z,68.57
2019-03-15T21:09:47.761Z,64.93
2019-03-15T21:12:17.097Z,66.43
2019-03-15T21:14:46.450Z,64.34
2019-03-15T21:17:15.767Z,65.95
2019-03-15T21:19:45.111Z,64.76
2019-03-15T21:22:14.424Z,65.59
2019-03-15T21:24:43.772Z,65.97
2019-03-15T21:27:13.129Z,65.61
2019-03-15T21:29:42.576Z,66.56
2019-03-15T21:32:12.013Z,64.59
2019-03-15T21:34:41.460Z,65.20
2019-03-15T21:37:10.805Z,65.68
2019-03-15T21:42:55.178Z,65.26
2019-03-15T21:48:25.966Z,64.63
2019-03-15T21:50:55.295Z,65.73
2019-03-15T21:53:24.621Z,66.38
2019-03-15T21:55:53.957Z,67.95
2019-03-15T21:58:23.308Z,65.21
2019-03-15T22:01:02.252Z,66.18
2019-03-15T22:03:41.891Z,65.03
2019-03-15T22:06:11.224Z,66.30
2019-03-15T22:08:40.591Z,66.68
2019-03-15T22:11:20.560Z,67.34
2019-03-15T22:13:59.250Z,68.91
2019-03-15T22:16:28.597Z,67.74
2019-03-15T22:18:57.931Z,66.73
2019-03-15T22:21:27.298Z,67.33
2019-03-15T22:23:56.623Z,68.66
2019-03-15T22:26:25.978Z,67.87
2019-03-15T22:28:55.307Z,70.14
2019-03-15T22:31:24.641Z,65.44
2019-03-15T22:36:49.405Z,65.87
2019-03-15T22:42:20.895Z,66.77
2019-03-15T22:44:50.252Z,66.76
2019-03-15T22:47:19.615Z,66.63
2019-03-15T22:49:48.956Z,66.80
2019-03-15T22:52:18.315Z,68.14
2019-03-15T22:57:59.307Z,69.80
2019-03-15T23:00:39.262Z,67.51
2019-03-15T23:03:08.601Z,66.90
2019-03-15T23:05:37.929Z,70.24
2019-03-15T23:08:07.265Z,72.28
2019-03-15T23:10:36.603Z,69.60
2019-03-15T23:13:05.913Z,67.13
2019-03-15T23:15:35.246Z,68.33
2019-03-15T23:18:04.599Z,68.62
2019-03-15T23:20:33.955Z,68.81
2019-03-15T23:23:03.284Z,70.19
2019-03-15T23:25:32.628Z,69.29
2019-03-15T23:28:01.965Z,70.57
2019-03-15T23:30:31.356Z,70.22
2019-03-15T23:33:00.675Z,71.59
2019-03-15T23:35:30.017Z,69.92
2019-03-15T23:37:59.334Z,71.19
2019-03-15T23:40:28.668Z,68.08
2019-03-15T23:42:58.002Z,70.40
2019-03-15T23:45:27.320Z,69.00
2019-03-15T23:47:56.661Z,69.25
2019-03-15T23:53:28.025Z,71.44
2019-03-15T23:55:57.438Z,68.45
2019-03-15T23:58:26.795Z,69.99
